^^
Grace C. Lehan Memorial Weather Station Historical Data
Daily Summary for May 19, 2022 Units:  Both    English   Metric
Daily Weekly Monthly Yearly
  High: Low: Average:
Temperature: 40.5 °F /  4.7 °C 29.1 °F /  -1.6 °C 32.5 °F /  0.3 °C
Dew Point: 27.7 °F /  -2.4 °C 23.4 °F /  -4.8 °C 25.8 °F /  -3.4 °C
Humidity: 82.4% 55.5% 76%
Wind Speed: 2.2mph /  3.5km/h - 0.3mph /  0.5km/h
Wind Gust: 10mph /  16.1km/h - -
Wind- - WSW
Pressure: 30.18 in /  1021.9 hPa 30.09 in /  1018.8 hPa -
Precipitation: 0.00 in /  0 mm    
 
 
Tabular Data for May 19, 2022
Time Temperature Dew Point Pressure Wind Wind Speed Wind Gust Humidity Rainfall Rate (Hourly) solar
00:04 33.5 °F /  0.8 °C 27.3 °F /  -2.6 °C 30.09in /  1018.8hPa Calm   4mph /  6.4km/h 77.7% 0.00in /  0mm 0 W/m2
00:09 33.5 °F /  0.8 °C 27.4 °F /  -2.6 °C 30.09in /  1018.8hPa Calm     78% 0.00in /  0mm 0 W/m2
00:14 33.5 °F /  0.8 °C 27.5 °F /  -2.5 °C 30.09in /  1018.8hPa Calm     78.4% 0.00in /  0mm 0 W/m2
00:19 33.5 °F /  0.8 °C 27.7 °F /  -2.4 °C 30.09in /  1018.8hPa Calm     79% 0.00in /  0mm 0 W/m2
00:24 33.4 °F /  0.8 °C 27.6 °F /  -2.4 °C 30.09in /  1018.8hPa Calm     79% 0.00in /  0mm 0 W/m2
00:29 33.2 °F /  0.7 °C 27.2 °F /  -2.7 °C 30.10in /  1019.2hPa Calm     78.2% 0.00in /  0mm 0 W/m2
00:34 33.1 °F /  0.6 °C 27.2 °F /  -2.7 °C 30.10in /  1019.2hPa Calm     78.8% 0.00in /  0mm 0 W/m2
00:39 32.9 °F /  0.5 °C 27.1 °F /  -2.7 °C 30.10in /  1019.2hPa Calm     79% 0.00in /  0mm 0 W/m2
00:44 32.7 °F /  0.4 °C 27 °F /  -2.8 °C 30.10in /  1019.2hPa Calm     79.3% 0.00in /  0mm 0 W/m2
00:49 32.7 °F /  0.4 °C 27.3 °F /  -2.6 °C 30.10in /  1019.2hPa Calm     80.3% 0.00in /  0mm 0 W/m2
00:54 32.7 °F /  0.4 °C 27.5 °F /  -2.5 °C 30.10in /  1019.2hPa Calm     81% 0.00in /  0mm 0 W/m2
00:59 32.7 °F /  0.4 °C 27.5 °F /  -2.5 °C 30.10in /  1019.2hPa Calm     81% 0.00in /  0mm 0 W/m2
01:04 32.6 °F /  0.3 °C 27.4 °F /  -2.6 °C 30.10in /  1019.2hPa Calm   2mph /  3.2km/h 81% 0.00in /  0mm 0 W/m2
01:09 32.5 °F /  0.3 °C 27.3 °F /  -2.6 °C 30.10in /  1019.2hPa Calm   2mph /  3.2km/h 81% 0.00in /  0mm 0 W/m2
01:14 32.3 °F /  0.2 °C 27.2 °F /  -2.7 °C 30.11in /  1019.5hPa Calm   2mph /  3.2km/h 81% 0.00in /  0mm 0 W/m2
01:19 32.3 °F /  0.2 °C 27.3 °F /  -2.6 °C 30.11in /  1019.5hPa Calm   2mph /  3.2km/h 81.5% 0.00in /  0mm 0 W/m2
01:24 32.2 °F /  0.1 °C 27.4 °F /  -2.6 °C 30.11in /  1019.5hPa Calm   2mph /  3.2km/h 82% 0.00in /  0mm 0 W/m2
01:29 32.2 °F /  0.1 °C 27.3 °F /  -2.6 °C 30.11in /  1019.5hPa Calm   2mph /  3.2km/h 82% 0.00in /  0mm 0 W/m2
01:34 32.1 °F /  0.1 °C 27.3 °F /  -2.6 °C 30.12in /  1019.9hPa Calm   2mph /  3.2km/h 82% 0.00in /  0mm 0 W/m2
01:39 32.1 °F /  0.1 °C 27.2 °F /  -2.7 °C 30.12in /  1019.9hPa Calm     82% 0.00in /  0mm 0 W/m2
01:44 32.1 °F /  0.1 °C 27.2 °F /  -2.7 °C 30.12in /  1019.9hPa SW 0.3mph /  0.5km/h 7mph /  11.3km/h 82% 0.00in /  0mm 0 W/m2
01:49 32.1 °F /  0.1 °C 27.3 °F /  -2.6 °C 30.12in /  1019.9hPa SW 0.1mph /  0.2km/h 7mph /  11.3km/h 82.4% 0.00in /  0mm 0 W/m2
01:54 32.1 °F /  0.1 °C 27.2 °F /  -2.7 °C 30.12in /  1019.9hPa Calm   7mph /  11.3km/h 82% 0.00in /  0mm 0 W/m2
01:59 32.1 °F /  0.1 °C 27.2 °F /  -2.7 °C 30.12in /  1019.9hPa Calm   7mph /  11.3km/h 82% 0.00in /  0mm 0 W/m2
02:04 32.1 °F /  0.1 °C 27.2 °F /  -2.7 °C 30.12in /  1019.9hPa Calm   7mph /  11.3km/h 82% 0.00in /  0mm 0 W/m2
02:09 32 °F /  0 °C 27.1 °F /  -2.7 °C 30.12in /  1019.9hPa SW 0.1mph /  0.2km/h 2mph /  3.2km/h 82% 0.00in /  0mm 0 W/m2
02:14 31.9 °F /  -0.1 °C 27.1 °F /  -2.7 °C 30.12in /  1019.9hPa Calm   2mph /  3.2km/h 82% 0.00in /  0mm 0 W/m2
02:19 31.9 °F /  -0.1 °C 27 °F /  -2.8 °C 30.12in /  1019.9hPa SW 0.2mph /  0.3km/h 3mph /  4.8km/h 82% 0.00in /  0mm 0 W/m2
02:24 31.8 °F /  -0.1 °C 26.9 °F /  -2.8 °C 30.12in /  1019.9hPa SW 0.2mph /  0.3km/h 3mph /  4.8km/h 82% 0.00in /  0mm 0 W/m2
02:29 31.7 °F /  -0.2 °C 26.9 °F /  -2.8 °C 30.12in /  1019.9hPa SW 0.5mph /  0.8km/h 4mph /  6.4km/h 82% 0.00in /  0mm 0 W/m2
02:34 31.7 °F /  -0.2 °C 26.8 °F /  -2.9 °C 30.12in /  1019.9hPa SW 0.8mph /  1.3km/h 5mph /  8km/h 82% 0.00in /  0mm 0 W/m2
02:39 31.7 °F /  -0.2 °C 26.7 °F /  -2.9 °C 30.12in /  1019.9hPa SW 0.5mph /  0.8km/h 5mph /  8km/h 81.4% 0.00in /  0mm 0 W/m2
02:44 31.7 °F /  -0.2 °C 26.6 °F /  -3 °C 30.12in /  1019.9hPa SW 0.6mph /  1km/h 5mph /  8km/h 81% 0.00in /  0mm 0 W/m2
02:49 31.7 °F /  -0.2 °C 26.6 °F /  -3 °C 30.12in /  1019.9hPa SW 0.5mph /  0.8km/h 5mph /  8km/h 81% 0.00in /  0mm 0 W/m2
02:54 31.7 °F /  -0.2 °C 26.5 °F /  -3.1 °C 30.11in /  1019.5hPa SW 0.5mph /  0.8km/h 5mph /  8km/h 81% 0.00in /  0mm 0 W/m2
02:59 31.6 °F /  -0.2 °C 26.5 °F /  -3.1 °C 30.11in /  1019.5hPa WSW 1.7mph /  2.7km/h 10mph /  16.1km/h 81% 0.00in /  0mm 0 W/m2
03:04 31.7 °F /  -0.2 °C 26.4 °F /  -3.1 °C 30.12in /  1019.9hPa WSW 1.1mph /  1.8km/h 10mph /  16.1km/h 80.6% 0.00in /  0mm 0 W/m2
03:09 31.7 °F /  -0.2 °C 26.3 °F /  -3.2 °C 30.12in /  1019.9hPa WSW 1.3mph /  2.1km/h 10mph /  16.1km/h 80% 0.00in /  0mm 0 W/m2
03:14 31.7 °F /  -0.2 °C 26.3 °F /  -3.2 °C 30.12in /  1019.9hPa WSW 0.6mph /  1km/h 10mph /  16.1km/h 80% 0.00in /  0mm 0 W/m2
03:19 31.7 °F /  -0.2 °C 26.1 °F /  -3.3 °C 30.12in /  1019.9hPa WSW 0.4mph /  0.6km/h 10mph /  16.1km/h 79.4% 0.00in /  0mm 0 W/m2
03:24 31.7 °F /  -0.2 °C 25.9 °F /  -3.4 °C 30.12in /  1019.9hPa WSW 1.5mph /  2.4km/h 10mph /  16.1km/h 79% 0.00in /  0mm 0 W/m2
03:29 31.7 °F /  -0.2 °C 25.9 °F /  -3.4 °C 30.12in /  1019.9hPa WSW 1.5mph /  2.4km/h 10mph /  16.1km/h 79% 0.00in /  0mm 0 W/m2
03:34 31.6 °F /  -0.2 °C 25.9 °F /  -3.4 °C 30.12in /  1019.9hPa WSW 1.9mph /  3.1km/h 10mph /  16.1km/h 79% 0.00in /  0mm 0 W/m2
03:39 31.6 °F /  -0.2 °C 25.9 °F /  -3.4 °C 30.12in /  1019.9hPa WSW 0.3mph /  0.5km/h 5mph /  8km/h 79% 0.00in /  0mm 0 W/m2
03:44 31.5 °F /  -0.3 °C 25.8 °F /  -3.4 °C 30.12in /  1019.9hPa Calm   5mph /  8km/h 79% 0.00in /  0mm 0 W/m2
03:49 31.5 °F /  -0.3 °C 25.7 °F /  -3.5 °C 30.12in /  1019.9hPa Calm   5mph /  8km/h 79% 0.00in /  0mm 0 W/m2
03:54 31.4 °F /  -0.3 °C 25.6 °F /  -3.6 °C 30.12in /  1019.9hPa Calm   5mph /  8km/h 79% 0.00in /  0mm 0 W/m2
03:59 31.3 °F /  -0.4 °C 25.5 °F /  -3.6 °C 30.12in /  1019.9hPa WSW 0.3mph /  0.5km/h 5mph /  8km/h 79% 0.00in /  0mm 0 W/m2
04:00 31.2 °F /  -0.4 °C 25.5 °F /  -3.6 °C 30.12in /  1019.9hPa Calm   5mph /  8km/h 79% 0.00in /  0mm 0 W/m2
04:09 31.1 °F /  -0.5 °C 25.4 °F /  -3.7 °C 30.13in /  1020.2hPa WSW 0.3mph /  0.5km/h 3mph /  4.8km/h 79% 0.00in /  0mm 0 W/m2
04:14 31.2 °F /  -0.4 °C 25.5 °F /  -3.6 °C 30.13in /  1020.2hPa WSW 0.2mph /  0.3km/h 3mph /  4.8km/h 79% 0.00in /  0mm 0 W/m2
04:19 31.2 °F /  -0.4 °C 25.5 °F /  -3.6 °C 30.12in /  1019.9hPa WSW 0.2mph /  0.3km/h 3mph /  4.8km/h 79% 0.00in /  0mm 0 W/m2
04:24 31.1 °F /  -0.5 °C 25.4 °F /  -3.7 °C 30.13in /  1020.2hPa WSW 1.1mph /  1.8km/h 3mph /  4.8km/h 79% 0.00in /  0mm 0 W/m2
04:29 31 °F /  -0.6 °C 25.3 °F /  -3.7 °C 30.13in /  1020.2hPa WSW 2mph /  3.2km/h 5mph /  8km/h 79% 0.00in /  0mm 0 W/m2
04:34 30.9 °F /  -0.6 °C 25.2 °F /  -3.8 °C 30.13in /  1020.2hPa WSW 1.2mph /  1.9km/h 5mph /  8km/h 79% 0.00in /  0mm 0 W/m2
04:39 30.8 °F /  -0.7 °C 25.1 °F /  -3.8 °C 30.14in /  1020.5hPa Calm   5mph /  8km/h 79% 0.00in /  0mm 0 W/m2
04:44 30.8 °F /  -0.7 °C 25 °F /  -3.9 °C 30.14in /  1020.5hPa WSW 0.1mph /  0.2km/h 5mph /  8km/h 79% 0.00in /  0mm 0 W/m2
04:49 30.7 °F /  -0.7 °C 25 °F /  -3.9 °C 30.14in /  1020.5hPa WSW 0.1mph /  0.2km/h 5mph /  8km/h 79% 0.00in /  0mm 0 W/m2
04:54 30.6 °F /  -0.8 °C 24.9 °F /  -3.9 °C 30.14in /  1020.5hPa WSW 0.9mph /  1.4km/h 5mph /  8km/h 79% 0.00in /  0mm 0 W/m2
04:59 30.6 °F /  -0.8 °C 24.8 °F /  -4 °C 30.15in /  1020.9hPa WSW 0.9mph /  1.4km/h 5mph /  8km/h 79% 0.00in /  0mm 0 W/m2
05:04 30.5 °F /  -0.8 °C 24.8 °F /  -4 °C 30.15in /  1020.9hPa West 0.9mph /  1.4km/h 8mph /  12.9km/h 79% 0.00in /  0mm 0 W/m2
05:09 30.4 °F /  -0.9 °C 24.7 °F /  -4.1 °C 30.14in /  1020.5hPa West 0.4mph /  0.6km/h 8mph /  12.9km/h 79% 0.00in /  0mm 0 W/m2
05:14 30.3 °F /  -0.9 °C 24.6 °F /  -4.1 °C 30.14in /  1020.5hPa West 1mph /  1.6km/h 8mph /  12.9km/h 79% 0.00in /  0mm 0 W/m2
05:19 30.3 °F /  -0.9 °C 24.6 °F /  -4.1 °C 30.14in /  1020.5hPa West 0.9mph /  1.4km/h 8mph /  12.9km/h 79% 0.00in /  0mm 0 W/m2
05:24 30.3 °F /  -0.9 °C 24.6 °F /  -4.1 °C 30.14in /  1020.5hPa West 0.5mph /  0.8km/h 8mph /  12.9km/h 79% 0.00in /  0mm 0 W/m2
05:29 30.3 °F /  -0.9 °C 24.4 °F /  -4.2 °C 30.14in /  1020.5hPa West 0.1mph /  0.2km/h 8mph /  12.9km/h 78.4% 0.00in /  0mm 0 W/m2
05:34 30.3 °F /  -0.9 °C 24.3 °F /  -4.3 °C 30.14in /  1020.5hPa Calm   8mph /  12.9km/h 78% 0.00in /  0mm 0 W/m2
05:39 30.2 °F /  -1 °C 24.2 °F /  -4.3 °C 30.14in /  1020.5hPa West 0.3mph /  0.5km/h 4mph /  6.4km/h 78% 0.00in /  0mm 0 W/m2
05:44 30.1 °F /  -1.1 °C 24.1 °F /  -4.4 °C 30.15in /  1020.9hPa West 0.6mph /  1km/h 4mph /  6.4km/h 78% 0.00in /  0mm 0 W/m2
05:49 30.1 °F /  -1.1 °C 24 °F /  -4.4 °C 30.14in /  1020.5hPa West 0.8mph /  1.3km/h 4mph /  6.4km/h 78% 0.00in /  0mm 0 W/m2
05:54 30 °F /  -1.1 °C 24 °F /  -4.4 °C 30.14in /  1020.5hPa West 0.3mph /  0.5km/h 4mph /  6.4km/h 78.1% 0.00in /  0mm 0 W/m2
05:59 29.9 °F /  -1.2 °C 24.1 °F /  -4.4 °C 30.14in /  1020.5hPa West 2.2mph /  3.5km/h 5mph /  8km/h 78.7% 0.00in /  0mm 0 W/m2
06:04 29.9 °F /  -1.2 °C 24.1 °F /  -4.4 °C 30.14in /  1020.5hPa West 1mph /  1.6km/h 5mph /  8km/h 79% 0.00in /  0mm 0 W/m2
06:09 29.8 °F /  -1.2 °C 24.1 °F /  -4.4 °C 30.15in /  1020.9hPa West 0.6mph /  1km/h 4mph /  6.4km/h 79% 0.00in /  0mm 0 W/m2
06:14 29.7 °F /  -1.3 °C 24 °F /  -4.4 °C 30.15in /  1020.9hPa West 0.9mph /  1.4km/h 6mph /  9.7km/h 79% 0.00in /  0mm 0 W/m2
06:19 29.6 °F /  -1.3 °C 23.9 °F /  -4.5 °C 30.15in /  1020.9hPa Calm   6mph /  9.7km/h 79% 0.00in /  0mm 0 W/m2
06:24 29.6 °F /  -1.3 °C 23.9 °F /  -4.5 °C 30.15in /  1020.9hPa West 0.1mph /  0.2km/h 6mph /  9.7km/h 79% 0.00in /  0mm 0 W/m2
06:29 29.6 °F /  -1.3 °C 23.9 °F /  -4.5 °C 30.16in /  1021.2hPa Calm   6mph /  9.7km/h 79% 0.00in /  0mm 0 W/m2
06:34 29.5 °F /  -1.4 °C 23.8 °F /  -4.6 °C 30.16in /  1021.2hPa Calm   6mph /  9.7km/h 79% 0.00in /  0mm 0 W/m2
06:39 29.4 °F /  -1.4 °C 23.7 °F /  -4.6 °C 30.15in /  1020.9hPa Calm     79% 0.00in /  0mm 0 W/m2
06:44 29.3 °F /  -1.5 °C 23.6 °F /  -4.7 °C 30.15in /  1020.9hPa Calm     79% 0.00in /  0mm 0 W/m2
06:49 29.3 °F /  -1.5 °C 23.6 °F /  -4.7 °C 30.15in /  1020.9hPa Calm     79% 0.00in /  0mm 0 W/m2
06:54 29.2 °F /  -1.6 °C 23.5 °F /  -4.7 °C 30.15in /  1020.9hPa West 0.1mph /  0.2km/h 3mph /  4.8km/h 79% 0.00in /  0mm 5 W/m2
06:59 29.1 °F /  -1.6 °C 23.4 °F /  -4.8 °C 30.15in /  1020.9hPa West 0.3mph /  0.5km/h 3mph /  4.8km/h 79% 0.00in /  0mm 7 W/m2
07:04 29.1 °F /  -1.6 °C 23.6 °F /  -4.7 °C 30.16in /  1021.2hPa West 0.1mph /  0.2km/h 3mph /  4.8km/h 79.8% 0.00in /  0mm 16 W/m2
07:09 29.1 °F /  -1.6 °C 23.7 °F /  -4.6 °C 30.16in /  1021.2hPa Calm   3mph /  4.8km/h 80% 0.00in /  0mm 26 W/m2
07:14 29.2 °F /  -1.6 °C 23.8 °F /  -4.6 °C 30.16in /  1021.2hPa Calm   3mph /  4.8km/h 80% 0.00in /  0mm 32 W/m2
07:19 29.3 °F /  -1.5 °C 23.9 °F /  -4.5 °C 30.17in /  1021.6hPa Calm   3mph /  4.8km/h 80% 0.00in /  0mm 65 W/m2
07:24 29.6 °F /  -1.3 °C 24.2 °F /  -4.3 °C 30.17in /  1021.6hPa Calm   3mph /  4.8km/h 80% 0.00in /  0mm 93 W/m2
07:29 30.2 °F /  -1 °C 24.9 °F /  -3.9 °C 30.17in /  1021.6hPa Calm   3mph /  4.8km/h 80.3% 0.00in /  0mm 107 W/m2
07:34 31.2 °F /  -0.4 °C 25.9 °F /  -3.4 °C 30.17in /  1021.6hPa Calm   3mph /  4.8km/h 80.3% 0.00in /  0mm 125 W/m2
07:39 32.4 °F /  0.2 °C 26.5 °F /  -3.1 °C 30.17in /  1021.6hPa Calm     78.5% 0.00in /  0mm 144 W/m2
07:44 33.4 °F /  0.8 °C 26.8 °F /  -2.9 °C 30.17in /  1021.6hPa Calm     76.6% 0.00in /  0mm 158 W/m2
07:49 34.4 °F /  1.3 °C 27.1 °F /  -2.7 °C 30.17in /  1021.6hPa Calm     74.6% 0.00in /  0mm 158 W/m2
07:54 35.4 °F /  1.9 °C 27.1 °F /  -2.7 °C 30.17in /  1021.6hPa Calm     71.5% 0.00in /  0mm 167 W/m2
07:59 36.2 °F /  2.3 °C 26.8 °F /  -2.9 °C 30.17in /  1021.6hPa Calm     68.3% 0.00in /  0mm 185 W/m2
08:09 36.8 °F /  2.7 °C 26.5 °F /  -3.1 °C 30.17in /  1021.6hPa Calm     65.9% 0.00in /  0mm 207 W/m2
08:14 37.2 °F /  2.9 °C 26.5 °F /  -3.1 °C 30.17in /  1021.6hPa Calm     65% 0.00in /  0mm 243 W/m2
08:19 37.8 °F /  3.2 °C 26.9 °F /  -2.8 °C 30.17in /  1021.6hPa Calm     64.6% 0.00in /  0mm 253 W/m2
08:24 38.2 °F /  3.4 °C 26.6 °F /  -3 °C 30.17in /  1021.6hPa Calm     62.8% 0.00in /  0mm 267 W/m2
08:29 38.7 °F /  3.7 °C 26.5 °F /  -3.1 °C 30.18in /  1021.9hPa Calm     61.1% 0.00in /  0mm 278 W/m2
08:34 39.1 °F /  3.9 °C 26.7 °F /  -2.9 °C 30.18in /  1021.9hPa Calm     60.7% 0.00in /  0mm 287 W/m2
08:39 39.6 °F /  4.2 °C 26.9 °F /  -2.8 °C 30.18in /  1021.9hPa Calm     60% 0.00in /  0mm 301 W/m2
08:44 40.1 °F /  4.5 °C 26.9 °F /  -2.8 °C 30.17in /  1021.6hPa Calm     58.9% 0.00in /  0mm 311 W/m2
08:49 40.4 °F /  4.7 °C 26.6 °F /  -3 °C 30.17in /  1021.6hPa West 0.3mph /  0.5km/h 3mph /  4.8km/h 57.4% 0.00in /  0mm 320 W/m2
08:54 40.5 °F /  4.7 °C 26 °F /  -3.3 °C 30.17in /  1021.6hPa Calm   3mph /  4.8km/h 56.1% 0.00in /  0mm 308 W/m2
08:59 40.2 °F /  4.6 °C 25.6 °F /  -3.6 °C 30.18in /  1021.9hPa West 0.1mph /  0.2km/h 3mph /  4.8km/h 55.5% 0.00in /  0mm 186 W/m2
09:04 39.4 °F /  4.1 °C 25.1 °F /  -3.8 °C 30.18in /  1021.9hPa West 1mph /  1.6km/h 5mph /  8km/h 56.2% 0.00in /  0mm 193 W/m2
09:09 38.7 °F /  3.7 °C 24.9 °F /  -3.9 °C 30.18in /  1021.9hPa West 0.3mph /  0.5km/h 5mph /  8km/h 57.1% 0.00in /  0mm 97 W/m2
09:14 38.1 °F /  3.4 °C 24.9 °F /  -3.9 °C 30.18in /  1021.9hPa West 0.3mph /  0.5km/h 5mph /  8km/h 58.7% 0.00in /  0mm 139 W/m2
09:19 37.5 °F /  3.1 °C 24.8 °F /  -4 °C 30.18in /  1021.9hPa West 0.2mph /  0.3km/h 5mph /  8km/h 59.6% 0.00in /  0mm 234 W/m2
09:24 37.2 °F /  2.9 °C 24.7 °F /  -4.1 °C 30.18in /  1021.9hPa WSW 0.3mph /  0.5km/h 5mph /  8km/h 60.2% 0.00in /  0mm 243 W/m2
09:29 37.1 °F /  2.8 °C 24.9 °F /  -3.9 °C 30.18in /  1021.9hPa WSW 0.7mph /  1.1km/h 6mph /  9.7km/h 61% 0.00in /  0mm 163 W/m2
09:32 37.1 °F /  2.8 °C 25 °F /  -3.9 °C 30.17in /  1021.6hPa WSW 0.1mph /  0.2km/h 6mph /  9.7km/h 61% 0.00in /  0mm 95 W/m2
Hartford County Weather
Compliments of Weather Underground - 4 mb